ADDS METAR Data INFO
IDs: Format: Raw Decoded Include TAF

Data at: 0753 UTC 24 May 2018

KPVW 240735Z AUTO 02014KT 10SM VCTS BKN060 BKN120 18/13 A3011 RMK AO2 LTG DSNT NE T01840129
KPVW 240715Z AUTO 02015G18KT 10SM SCT060 20/12 A3011 RMK AO2 T01950120
KPVW 240655Z AUTO 34005KT 10SM CLR 19/12 A3011 RMK AO2 T01940120
KPVW 240635Z AUTO 19003KT 10SM CLR 19/13 A3009 RMK AO2 T01860126
KPVW 240615Z AUTO 16004KT 10SM CLR 18/13 A3007 RMK AO2 T01840126
KPVW 240555Z AUTO 12005KT 10SM CLR 19/12 A3007 RMK AO2 T01860122 10280 20186 402970157
KPVW 240535Z AUTO 15003KT 10SM CLR 19/12 A3006 RMK AO2 T01910115
KPVW 240515Z AUTO 19004KT 10SM CLR 20/11 A3007 RMK AO2 T01970107
KPVW 240455Z AUTO 22003KT 10SM CLR 20/11 A3008 RMK AO2 T02000109
KPVW 240435Z AUTO 23009KT 10SM CLR 20/11 A3009 RMK AO2 T02000107
KPVW 240415Z AUTO 24011KT 10SM SCT100 20/11 A3010 RMK AO2 T01970110
KPVW 240355Z AUTO 24013G19KT 10SM -RA SCT060 SCT070 BKN110 20/11 A3011 RMK AO2 T01970112
KPVW 240335Z AUTO 24021G31KT 4SM HZ SCT016 BKN065 OVC085 22/10 A3010 RMK AO2 T02230098 TSNO
KPVW 240315Z AUTO 16012KT 10SM SCT065 BKN085 OVC110 24/13 A3006 RMK AO2 T02430125
KPVW 240255Z AUTO 16009KT 10SM BKN065 BKN075 BKN110 25/13 A3007 RMK AO2 T02450125
KPVW 240235Z AUTO 17010KT 10SM SCT065 SCT075 25/12 A3006 RMK AO2 T02450124
KPVW 240215Z AUTO 17010KT 10SM BKN070 25/13 A3005 RMK AO2 LTG DSNT N AND NW T02510125
KPVW 240155Z AUTO 17009KT 10SM BKN070 26/12 A3005 RMK AO2 T02550123
KPVW 240135Z AUTO 17011KT 10SM SCT070 26/12 A3004 RMK AO2 LTG DSNT NW T02590120
KPVW 240115Z AUTO 17010KT 10SM CLR 26/12 A3004 RMK AO2 T02630116
KPVW 240055Z AUTO 18013KT 10SM SCT070 27/12 A3003 RMK AO2 T02700118
KPVW 240035Z AUTO 17013KT 10SM SCT070 SCT120 28/12 A3002 RMK AO2 T02750118
KPVW 240015Z AUTO 17015G19KT 10SM SCT120 28/12 A3000 RMK AO2 T02770118 TSNO
KPVW 232355Z AUTO 16013G20KT 10SM CLR 28/12 A2999 RMK AO2 T02800117 10297 20265
KPVW 232335Z AUTO 16012KT 10SM SCT070 SCT120 28/12 A2998 RMK AO2 T02830117
KPVW 232315Z AUTO 14013G20KT 10SM SCT070 29/12 A2998 RMK AO2 T02860123
KPVW 232255Z AUTO 16013G18KT 10SM SCT060 29/12 A2999 RMK AO2 T02930120
KPVW 232235Z AUTO 18015G22KT 10SM SCT060 29/13 A2999 RMK AO2 LTG DSNT N T02940125
KPVW 232215Z AUTO 16014G22KT 10SM SCT060 30/13 A3000 RMK AO2 T02950127
KPVW 232155Z AUTO 17017G21KT 10SM SCT060 29/13 A3000 RMK AO2 T02940125
KPVW 232135Z AUTO 17017G21KT 10SM SCT060 29/13 A3001 RMK AO2 T02940131
KPVW 232115Z AUTO 16016G20KT 10SM SCT060 29/13 A3002 RMK AO2 T02940131
KPVW 232055Z AUTO 16014G24KT 10SM SCT060 29/13 A3003 RMK AO2 T02860131
KPVW 232035Z AUTO 19018G21KT 10SM SCT050 SCT080 29/13 A3004 RMK AO2 T02900134
KPVW 232015Z AUTO 18015G21KT 10SM SCT050 SCT070 SCT080 29/14 A3005 RMK AO2 T02890138
KPVW 231955Z AUTO 18016G21KT 10SM SCT049 29/14 A3006 RMK AO2 T02850139
KPVW 231935Z AUTO 17013G21KT 10SM SCT049 SCT065 28/14 A3007 RMK AO2 T02830143
KPVW 231915Z AUTO 17014G19KT 10SM SCT046 SCT060 28/14 A3008 RMK AO2 T02800144
KPVW 231855Z AUTO 18013G19KT 10SM BKN046 BKN060 BKN070 27/15 A3008 RMK AO2 T02660145
KPVW 231835Z AUTO 18015G19KT 10SM BKN044 BKN070 27/15 A3009 RMK AO2 T02690147
KPVW 231815Z AUTO 16014G18KT 10SM SCT042 SCT065 28/15 A3008 RMK AO2 T02770150
KPVW 231755Z AUTO 18013G19KT 10SM BKN040 BKN047 BKN055 26/15 A3009 RMK AO2 T02640152 10267 20161
KPVW 231735Z AUTO 17015G20KT 10SM SCT040 SCT055 BKN070 26/16 A3009 RMK AO2 T02640155
KPVW 231715Z AUTO 16012G19KT 10SM SCT036 SCT043 BKN070 26/16 A3009 RMK AO2 T02590155
KPVW 231655Z AUTO 18013G17KT 10SM BKN033 BKN041 BKN050 26/16 A3010 RMK AO2 T02580156
KPVW 231635Z AUTO 17011G16KT 10SM SCT032 25/16 A3010 RMK AO2 T02490161
KPVW 231615Z AUTO 18012G16KT 10SM SCT030 SCT040 SCT050 25/16 A3010 RMK AO2 T02490164
KPVW 231555Z AUTO 18013G17KT 10SM SCT040 24/16 A3011 RMK AO2 T02420162
KPVW 231535Z AUTO 18012G15KT 10SM SCT028 23/16 A3010 RMK AO2 T02320159
KPVW 231515Z AUTO 19008KT 10SM CLR 23/15 A3010 RMK AO2 T02310154
KPVW 231455Z AUTO 18008G14KT 10SM CLR 22/15 A3011 RMK AO2 T02240148
KPVW 231435Z AUTO 17007KT 10SM CLR 22/14 A3011 RMK AO2 T02200141
KPVW 231415Z AUTO 16005KT 10SM CLR 22/13 A3010 RMK AO2 T02160132
KPVW 231355Z AUTO 15004KT 10SM CLR 21/13 A3010 RMK AO2 T02100129
KPVW 231335Z AUTO 14004KT 10SM CLR 20/12 A3009 RMK AO2 T02010122
KPVW 231315Z AUTO 14004KT 10SM CLR 19/12 A3008 RMK AO2 T01930122
KPVW 231255Z AUTO 12004KT 10SM CLR 18/12 A3009 RMK AO2 T01810120
KPVW 231235Z AUTO 16003KT 10SM CLR 16/12 A3008 RMK AO2 T01630122
KPVW 231215Z AUTO 00000KT 10SM CLR 16/12 A3008 RMK AO2 T01610120
KPVW 231155Z AUTO 31003KT 10SM SCT037 SCT043 SCT070 17/12 A3008 RMK AO2 T01710116 10196 20157
KPVW 231135Z AUTO 27008KT 10SM SCT029 OVC037 19/13 A3009 RMK AO2 T01850131
KPVW 231115Z AUTO 26010G16KT 10SM BKN029 BKN033 OVC042 19/14 A3008 RMK AO2 T01850144
KPVW 231055Z AUTO 26005KT 10SM SCT033 BKN040 OVC120 17/14 A3007 RMK AO2 LTG DSNT W AND NW T01660143
KPVW 231035Z AUTO 28005KT 10SM SCT040 BKN120 16/14 A3007 RMK AO2 LTG DSNT W T01610140
KPVW 231015Z AUTO 00000KT 10SM CLR 16/14 A3005 RMK AO2 LTG DSNT W T01630140
KPVW 230955Z AUTO 15005KT 10SM CLR 17/14 A3003 RMK AO2 LTG DSNT W AND NW T01680142
KPVW 230935Z AUTO 15004KT 10SM CLR 17/14 A3002 RMK AO2 LTG DSNT W AND NW T01700141
KPVW 230915Z AUTO 15007KT 10SM CLR 18/14 A3002 RMK AO2 LTG DSNT NW T01750140
KPVW 230855Z AUTO 14007KT 10SM CLR 18/14 A3001 RMK AO2 LTG DSNT W T01770140
KPVW 230835Z AUTO 15008KT 10SM CLR 18/14 A3001 RMK AO2 LTG DSNT W T01800138
KPVW 230815Z AUTO 14007KT 10SM CLR 18/14 A3001 RMK AO2 T01810136
KPVW 230755Z AUTO 14007KT 10SM CLR 18/14 A3000 RMK AO2 LTG DSNT W T01830135
KPVW 230735Z AUTO 15007KT 10SM CLR 19/13 A3001 RMK AO2 LTG DSNT NW T01860133
KPVW 230715Z AUTO 15008KT 10SM CLR 19/13 A3000 RMK AO2 T01900133
KPVW 230655Z AUTO 14010KT 10SM CLR 19/13 A3000 RMK AO2 T01910133
KPVW 230635Z AUTO 15009KT 10SM CLR 20/13 A3001 RMK AO2 T01950132
KPVW 230615Z AUTO 14010KT 10SM CLR 20/13 A3000 RMK AO2 T01950131
KPVW 230555Z AUTO 15010KT 10SM CLR 20/13 A3000 RMK AO2 T01960130 10275 20196 402870143
KPVW 230535Z AUTO 14011KT 10SM CLR 20/13 A3000 RMK AO2 T01990130
KPVW 230515Z AUTO 14010KT 10SM CLR 20/13 A3001 RMK AO2 T01970126
KPVW 230455Z AUTO 14010KT 10SM CLR 20/12 A3002 RMK AO2 T02010123
KPVW 230435Z AUTO 13009KT 10SM CLR 21/12 A3001 RMK AO2 T02050120
KPVW 230415Z AUTO 14009KT 10SM CLR 21/12 A3001 RMK AO2 T02050120
KPVW 230355Z AUTO 14009KT 10SM CLR 20/12 A3001 RMK AO2 T02040117
KPVW 230335Z AUTO 15009KT 10SM CLR 21/12 A3000 RMK AO2 LTG DSNT N T02050115
KPVW 230315Z AUTO 14008KT 10SM CLR 21/11 A3000 RMK AO2 T02050111
KPVW 230255Z AUTO 15007KT 10SM CLR 21/11 A2999 RMK AO2 T02130110
KPVW 230235Z AUTO 14008KT 10SM CLR 22/11 A2999 RMK AO2 T02200110
KPVW 230215Z AUTO 15008KT 10SM CLR 23/11 A2998 RMK AO2 T02280111
KPVW 230155Z AUTO 14009KT 10SM CLR 24/11 A2997 RMK AO2 T02360112
KPVW 230135Z AUTO 15008KT 10SM CLR 24/11 A2996 RMK AO2 T02430106
KPVW 230115Z AUTO 16010KT 10SM CLR 26/10 A2995 RMK AO2 T02550102
KPVW 230055Z AUTO 16011KT 10SM CLR 26/11 A2995 RMK AO2 T02610106
KPVW 230035Z AUTO 17010KT 10SM CLR 27/10 A2995 RMK AO2 T02670102
KPVW 230015Z AUTO 15015G20KT 10SM CLR 27/11 A2995 RMK AO2 T02710108
KPVW 222355Z AUTO 16016G21KT 10SM CLR 28/11 A2995 RMK AO2 T02750112 10287 20261
KPVW 222335Z AUTO 16014KT 10SM CLR 27/12 A2995 RMK AO2 T02740116
KPVW 222315Z AUTO 18017G21KT 10SM CLR 28/11 A2996 RMK AO2 T02800112
KPVW 222255Z AUTO 18015KT 10SM CLR 28/12 A2996 RMK AO2 T02770117
KPVW 222235Z AUTO 17013KT 10SM SCT065 SCT100 27/11 A2996 RMK AO2 T02700109
KPVW 222215Z AUTO 16014KT 10SM SCT065 SCT100 28/12 A2996 RMK AO2 T02820115
KPVW 222155Z AUTO 19013KT 10SM SCT065 SCT110 28/10 A2996 RMK AO2 T02760103
KPVW 222135Z AUTO 19016G19KT 10SM SCT065 SCT095 28/12 A2996 RMK AO2 T02820118
KPVW 222115Z AUTO 19010G19KT 10SM SCT065 SCT075 28/12 A2997 RMK AO2 T02830115
KPVW 222055Z AUTO 17014G18KT 10SM SCT055 SCT070 BKN110 29/12 A2998 RMK AO2 T02860122
KPVW 222035Z AUTO 18011G19KT 10SM SCT055 SCT065 27/13 A2999 RMK AO2 T02720125
KPVW 222015Z AUTO 17014G19KT 10SM BKN055 BKN075 28/13 A2999 RMK AO2 T02770125
KPVW 221955Z AUTO 18016G22KT 10SM SCT050 BKN065 BKN090 28/13 A3000 RMK AO2 T02810127